Time;durP1;ratioP1;P1;durP2;ratioP2;P2;SDS_P1;SDS_P2;PMS_P1;PMS_P2;Temp;Humidity;BMP_temperature;BMP_pressure;BME280_temperature;BME280_humidity;BME280_pressure;Samples;Min_cycle;Max_cycle;Signal;HPM_P1;HPM_P2
2023/02/17 00:01:26;;;;;;;28.65;12.15;;;;;;;;;;5026254;28;20042;-80
2023/02/17 00:03:53;;;;;;;22.35;11.25;;;;;;;;;;5030508;28;20046;-80
2023/02/17 00:06:21;;;;;;;31.95;12.90;;;;;;;;;;5030576;28;20046;-80
2023/02/17 00:08:48;;;;;;;30.48;12.02;;;;;;;;;;5030898;28;20042;-81
2023/02/17 00:11:14;;;;;;;22.52;12.13;;;;;;;;;;5012831;28;20064;-80
2023/02/17 00:13:41;;;;;;;25.42;11.68;;;;;;;;;;5030223;28;20136;-79
2023/02/17 00:16:14;;;;;;;24.65;11.85;;;;;;;;;;5032621;28;20072;-79
2023/02/17 00:18:40;;;;;;;28.48;12.45;;;;;;;;;;5033396;28;20685;-80
2023/02/17 00:21:27;;;;;;;27.67;12.35;;;;;;;;;;5033788;28;20553;-80
2023/02/17 00:23:53;;;;;;;28.33;13.25;;;;;;;;;;5033874;28;20050;-81
2023/02/17 00:26:20;;;;;;;27.40;12.57;;;;;;;;;;5035150;28;20045;-80
2023/02/17 00:28:46;;;;;;;28.98;13.20;;;;;;;;;;5032332;28;20051;-79
2023/02/17 00:31:14;;;;;;;26.70;12.68;;;;;;;;;;5033454;28;20136;-80
2023/02/17 00:33:41;;;;;;;26.92;12.65;;;;;;;;;;5034220;28;20053;-80
2023/02/17 00:36:10;;;;;;;27.83;13.02;;;;;;;;;;5032691;28;20526;-80
2023/02/17 00:38:36;;;;;;;24.75;12.07;;;;;;;;;;5033738;28;20148;-79
2023/02/17 00:41:03;;;;;;;23.48;11.52;;;;;;;;;;5033403;28;20057;-78
2023/02/17 00:43:29;;;;;;;23.83;11.95;;;;;;;;;;5033440;28;20056;-80
2023/02/17 00:45:58;;;;;;;24.38;11.50;;;;;;;;;;5034017;28;20045;-79
2023/02/17 00:48:24;;;;;;;22.05;11.70;;;;;;;;;;5033030;28;20077;-79
2023/02/17 00:50:51;;;;;;;22.45;11.15;;;;;;;;;;5033102;28;20061;-81
2023/02/17 00:53:17;;;;;;;27.85;11.02;;;;;;;;;;5033884;28;20052;-80
2023/02/17 00:55:44;;;;;;;22.60;10.65;;;;;;;;;;5032270;28;20053;-79
2023/02/17 00:58:10;;;;;;;22.02;10.65;;;;;;;;;;5033867;28;20068;-80
2023/02/17 01:00:36;;;;;;;22.20;10.23;;;;;;;;;;5033514;28;20052;-80
2023/02/17 01:03:03;;;;;;;22.15;10.82;;;;;;;;;;5016493;28;20545;-79
2023/02/17 01:05:29;;;;;;;19.10;9.25;;;;;;;;;;5034078;28;20113;-81
2023/02/17 01:07:56;;;;;;;21.50;10.30;;;;;;;;;;5033726;28;20188;-80
2023/02/17 01:10:22;;;;;;;21.23;10.32;;;;;;;;;;5016249;28;20052;-81
2023/02/17 01:12:49;;;;;;;22.55;9.68;;;;;;;;;;5017102;28;20103;-81
2023/02/17 01:15:15;;;;;;;25.73;10.88;;;;;;;;;;5036998;28;20087;-81
2023/02/17 01:17:41;;;;;;;19.17;10.05;;;;;;;;;;5032345;28;20142;-79
2023/02/17 01:20:08;;;;;;;20.50;9.80;;;;;;;;;;5034598;28;20112;-80
2023/02/17 01:22:36;;;;;;;22.38;9.57;;;;;;;;;;5033558;28;20079;-81
2023/02/17 01:25:03;;;;;;;20.52;10.15;;;;;;;;;;5032516;28;20045;-80
2023/02/17 01:27:29;;;;;;;20.45;9.25;;;;;;;;;;5031294;28;20041;-80
2023/02/17 01:29:56;;;;;;;18.38;9.52;;;;;;;;;;5032745;28;20063;-78
2023/02/17 01:32:22;;;;;;;19.05;9.40;;;;;;;;;;5031768;28;20053;-80
2023/02/17 01:34:49;;;;;;;16.05;8.40;;;;;;;;;;5032506;28;20049;-79
2023/02/17 01:37:15;;;;;;;21.15;9.27;;;;;;;;;;5032553;28;20517;-80
2023/02/17 01:39:42;;;;;;;17.98;9.48;;;;;;;;;;5032316;28;20136;-82
2023/02/17 01:42:13;;;;;;;19.13;8.65;;;;;;;;;;5032722;28;20049;-81
2023/02/17 01:44:58;;;;;;;22.20;10.32;;;;;;;;;;5032592;28;20128;-79
2023/02/17 01:47:24;;;;;;;21.23;9.35;;;;;;;;;;5031743;28;20060;-79
2023/02/17 01:49:51;;;;;;;19.90;9.45;;;;;;;;;;5031524;28;20056;-81
2023/02/17 01:52:20;;;;;;;20.15;9.27;;;;;;;;;;5033237;28;20053;-79
2023/02/17 01:54:49;;;;;;;19.75;8.80;;;;;;;;;;5033984;28;20511;-81
2023/02/17 01:57:16;;;;;;;16.35;8.90;;;;;;;;;;5033409;28;20113;-80
2023/02/17 01:59:43;;;;;;;18.05;9.35;;;;;;;;;;5015499;28;20049;-80
2023/02/17 02:02:10;;;;;;;23.88;9.60;;;;;;;;;;5033370;28;20064;-81
2023/02/17 02:04:38;;;;;;;16.85;8.85;;;;;;;;;;5032028;28;20072;-80
2023/02/17 02:07:09;;;;;;;22.05;9.15;;;;;;;;;;5014848;28;20055;-82
2023/02/17 02:09:37;;;;;;;19.90;8.70;;;;;;;;;;5033418;28;20049;-81
2023/02/17 02:12:15;;;;;;;18.33;8.73;;;;;;;;;;5033338;28;20045;-80
2023/02/17 02:14:41;;;;;;;17.30;8.68;;;;;;;;;;5027607;28;20053;-81
2023/02/17 02:17:08;;;;;;;18.98;9.82;;;;;;;;;;5033810;28;20072;-81
2023/02/17 02:20:02;;;;;;;19.55;8.80;;;;;;;;;;5034080;28;20647;-80
2023/02/17 02:22:28;;;;;;;18.02;8.95;;;;;;;;;;5033656;28;20073;-81
2023/02/17 02:25:04;;;;;;;19.10;9.27;;;;;;;;;;5034984;28;20068;-80
2023/02/17 02:27:44;;;;;;;18.35;9.07;;;;;;;;;;5033203;28;20503;-80
2023/02/17 02:30:19;;;;;;;17.58;8.88;;;;;;;;;;5033935;28;20046;-79
2023/02/17 02:32:46;;;;;;;;;;;;;;;;;;5034723;28;20484;-79
2023/02/17 02:35:16;;;;;;;18.90;8.73;;;;;;;;;;5034979;28;19921;-78
2023/02/17 02:38:01;;;;;;;21.75;9.10;;;;;;;;;;5017512;28;20049;-79
2023/02/17 02:40:35;;;;;;;17.55;8.85;;;;;;;;;;5007625;28;20522;-80
2023/02/17 02:43:02;;;;;;;16.90;9.00;;;;;;;;;;5024501;28;20049;-81
2023/02/17 02:45:29;;;;;;;17.92;8.35;;;;;;;;;;5032469;28;20180;-82
2023/02/17 02:47:56;;;;;;;17.33;8.18;;;;;;;;;;5013998;28;20060;-81
2023/02/17 02:50:42;;;;;;;15.55;8.32;;;;;;;;;;5032385;28;20167;-80
2023/02/17 02:53:11;;;;;;;20.15;8.15;;;;;;;;;;5032926;28;20061;-79
2023/02/17 02:55:51;;;;;;;17.75;8.57;;;;;;;;;;5038349;28;20059;-79
2023/02/17 02:58:18;;;;;;;20.67;8.55;;;;;;;;;;5037968;28;20400;-80
2023/02/17 03:00:44;;;;;;;16.00;7.82;;;;;;;;;;5039027;28;20068;-79
2023/02/17 03:03:10;;;;;;;19.05;8.02;;;;;;;;;;5048022;28;20041;-78
2023/02/17 03:05:39;;;;;;;17.38;8.43;;;;;;;;;;5049247;28;20060;-79
2023/02/17 03:08:19;;;;;;;17.85;8.13;;;;;;;;;;5032304;28;20057;-80
2023/02/17 03:10:49;;;;;;;15.02;8.18;;;;;;;;;;5046537;28;20060;-79
2023/02/17 03:13:17;;;;;;;20.45;8.55;;;;;;;;;;5046413;28;20092;-79
2023/02/17 03:15:43;;;;;;;17.90;8.52;;;;;;;;;;5046437;28;20057;-80
2023/02/17 03:18:10;;;;;;;18.90;8.43;;;;;;;;;;5042198;28;20049;-80
2023/02/17 03:20:37;;;;;;;16.80;8.48;;;;;;;;;;5032877;28;20124;-80
2023/02/17 03:23:04;;;;;;;13.88;7.93;;;;;;;;;;5033450;28;20482;-80
2023/02/17 03:25:30;;;;;;;16.35;7.93;;;;;;;;;;5034010;28;20053;-79
2023/02/17 03:27:57;;;;;;;15.57;8.40;;;;;;;;;;5035267;28;20057;-78
2023/02/17 03:30:26;;;;;;;17.45;9.27;;;;;;;;;;5039927;28;20052;-79
2023/02/17 03:32:53;;;;;;;16.20;8.52;;;;;;;;;;5023800;28;20081;-78
2023/02/17 03:35:19;;;;;;;16.92;9.20;;;;;;;;;;5033589;28;20059;-78
2023/02/17 03:37:45;;;;;;;17.73;9.25;;;;;;;;;;5032651;28;20127;-81
2023/02/17 03:40:12;;;;;;;18.83;8.93;;;;;;;;;;5042070;28;20063;-81
2023/02/17 03:42:38;;;;;;;20.50;9.30;;;;;;;;;;5031227;28;20045;-80
2023/02/17 03:45:05;;;;;;;20.05;9.52;;;;;;;;;;5012874;28;20152;-80
2023/02/17 03:47:31;;;;;;;19.48;8.90;;;;;;;;;;5032387;28;20068;-80
2023/02/17 03:49:57;;;;;;;19.77;9.85;;;;;;;;;;5032289;28;20049;-80
2023/02/17 03:52:24;;;;;;;19.20;9.57;;;;;;;;;;5018261;28;20046;-80
2023/02/17 03:54:51;;;;;;;18.85;9.45;;;;;;;;;;5034821;28;20129;-79
2023/02/17 03:57:18;;;;;;;22.83;10.25;;;;;;;;;;5031499;28;20151;-78
2023/02/17 03:59:44;;;;;;;23.40;10.88;;;;;;;;;;5034405;28;20042;-79
2023/02/17 04:02:11;;;;;;;25.50;11.57;;;;;;;;;;5032592;28;20075;-79
2023/02/17 04:04:38;;;;;;;25.65;11.18;;;;;;;;;;5033995;28;20480;-80
2023/02/17 04:07:04;;;;;;;22.15;10.82;;;;;;;;;;5018178;28;20108;-80
2023/02/17 04:09:30;;;;;;;25.42;11.35;;;;;;;;;;5017413;28;20568;-80
2023/02/17 04:11:57;;;;;;;21.88;11.13;;;;;;;;;;5033769;28;20584;-81
2023/02/17 04:14:23;;;;;;;23.35;12.35;;;;;;;;;;5016204;28;20054;-80
2023/02/17 04:16:53;;;;;;;22.80;12.18;;;;;;;;;;5029580;28;20045;-80
2023/02/17 04:19:22;;;;;;;23.63;12.68;;;;;;;;;;5029411;28;20443;-77
2023/02/17 04:21:48;;;;;;;25.67;12.25;;;;;;;;;;5029909;28;20049;-78
2023/02/17 04:24:15;;;;;;;25.45;11.90;;;;;;;;;;5011633;28;20125;-79
2023/02/17 04:26:41;;;;;;;21.27;11.82;;;;;;;;;;5029216;28;20096;-79
2023/02/17 04:29:07;;;;;;;25.85;12.65;;;;;;;;;;5029659;28;20144;-78
2023/02/17 04:31:34;;;;;;;25.35;11.15;;;;;;;;;;5030586;28;20053;-79
2023/02/17 04:34:00;;;;;;;25.45;11.48;;;;;;;;;;5029441;28;20049;-79
2023/02/17 04:36:27;;;;;;;28.15;11.52;;;;;;;;;;5010530;28;20044;-79
2023/02/17 04:38:53;;;;;;;23.33;11.18;;;;;;;;;;5029078;28;20052;-79
2023/02/17 04:41:22;;;;;;;21.20;10.85;;;;;;;;;;5012684;28;20060;-79
2023/02/17 04:43:48;;;;;;;23.13;10.68;;;;;;;;;;5029686;28;20045;-78
2023/02/17 04:46:14;;;;;;;19.45;11.13;;;;;;;;;;5030496;28;20129;-79
2023/02/17 04:48:41;;;;;;;25.00;10.55;;;;;;;;;;5028768;28;20060;-80
2023/02/17 04:51:07;;;;;;;21.70;11.18;;;;;;;;;;5029229;28;20041;-79
2023/02/17 04:53:34;;;;;;;16.10;9.82;;;;;;;;;;5028665;28;20060;-80
2023/02/17 04:56:00;;;;;;;21.45;10.73;;;;;;;;;;5029945;28;20073;-80
2023/02/17 04:58:27;;;;;;;23.40;11.07;;;;;;;;;;5028804;28;20053;-79
2023/02/17 05:00:53;;;;;;;24.85;12.07;;;;;;;;;;5030627;28;20049;-80
2023/02/17 05:03:19;;;;;;;21.00;11.05;;;;;;;;;;5031963;28;20397;-79
2023/02/17 05:05:49;;;;;;;23.02;11.98;;;;;;;;;;5032108;28;20065;-80
2023/02/17 05:08:15;;;;;;;23.60;11.70;;;;;;;;;;5031981;28;20045;-79
2023/02/17 05:10:41;;;;;;;21.75;11.52;;;;;;;;;;5032817;28;20522;-80
2023/02/17 05:13:08;;;;;;;20.95;11.75;;;;;;;;;;5033468;28;20053;-79
2023/02/17 05:15:34;;;;;;;20.15;11.40;;;;;;;;;;5024011;28;20076;-79
2023/02/17 05:18:01;;;;;;;22.63;11.57;;;;;;;;;;5033223;28;20069;-80
2023/02/17 05:20:27;;;;;;;29.50;11.82;;;;;;;;;;5033231;28;20660;-81
2023/02/17 05:22:54;;;;;;;23.13;12.23;;;;;;;;;;5033511;28;20745;-77
2023/02/17 05:25:20;;;;;;;24.35;12.52;;;;;;;;;;5030158;28;20045;-75
2023/02/17 05:27:47;;;;;;;22.60;11.77;;;;;;;;;;5028943;28;20075;-77
2023/02/17 05:30:13;;;;;;;23.85;11.18;;;;;;;;;;5030123;28;20064;-77
2023/02/17 05:32:40;;;;;;;21.15;11.63;;;;;;;;;;5030374;28;20057;-76
2023/02/17 05:35:06;;;;;;;22.17;11.38;;;;;;;;;;5029069;28;20140;-82
2023/02/17 05:37:33;;;;;;;20.73;10.82;;;;;;;;;;5031970;28;20069;-80
2023/02/17 05:39:59;;;;;;;22.60;10.65;;;;;;;;;;5033263;28;20069;-80
2023/02/17 05:42:27;;;;;;;22.02;11.10;;;;;;;;;;5034269;28;20068;-81
2023/02/17 05:44:54;;;;;;;19.77;10.52;;;;;;;;;;5034213;28;20132;-80
2023/02/17 05:47:21;;;;;;;20.85;10.20;;;;;;;;;;5033385;28;20080;-80
2023/02/17 05:49:48;;;;;;;20.70;9.73;;;;;;;;;;5034856;28;20059;-81
2023/02/17 05:52:15;;;;;;;20.27;10.50;;;;;;;;;;5033291;28;20057;-79
2023/02/17 05:54:42;;;;;;;23.55;9.82;;;;;;;;;;5033031;28;20129;-80
2023/02/17 05:57:08;;;;;;;21.98;9.98;;;;;;;;;;5031185;28;20049;-80
2023/02/17 05:59:34;;;;;;;19.08;9.20;;;;;;;;;;5033352;28;20741;-81
2023/02/17 06:02:01;;;;;;;20.73;10.77;;;;;;;;;;5033416;28;20057;-79
2023/02/17 06:04:27;;;;;;;18.52;9.63;;;;;;;;;;5032763;28;20045;-80
2023/02/17 06:06:54;;;;;;;22.38;9.35;;;;;;;;;;5033849;28;20513;-79
2023/02/17 06:09:20;;;;;;;16.25;9.32;;;;;;;;;;5033298;28;20045;-80
2023/02/17 06:11:46;;;;;;;19.65;9.25;;;;;;;;;;5014992;28;20069;-80
2023/02/17 06:14:13;;;;;;;15.82;8.73;;;;;;;;;;5032416;28;20160;-80
2023/02/17 06:16:39;;;;;;;17.55;9.25;;;;;;;;;;5032231;28;20049;-80
2023/02/17 06:19:06;;;;;;;18.33;9.65;;;;;;;;;;5032298;28;20132;-81
2023/02/17 06:21:32;;;;;;;19.55;9.90;;;;;;;;;;5015707;28;20045;-81
2023/02/17 06:23:58;;;;;;;17.30;10.13;;;;;;;;;;5033118;28;20056;-80
2023/02/17 06:26:25;;;;;;;19.40;9.82;;;;;;;;;;5014659;28;20049;-81
2023/02/17 06:28:52;;;;;;;18.90;10.07;;;;;;;;;;5015115;28;20099;-80
2023/02/17 06:31:19;;;;;;;17.10;9.48;;;;;;;;;;5015593;28;20152;-78
2023/02/17 06:33:45;;;;;;;18.95;9.98;;;;;;;;;;5015027;28;20085;-80
2023/02/17 06:36:12;;;;;;;18.60;9.90;;;;;;;;;;5015372;28;20095;-81
2023/02/17 06:38:38;;;;;;;19.92;9.43;;;;;;;;;;5032739;28;20056;-80
2023/02/17 06:41:04;;;;;;;17.77;9.95;;;;;;;;;;5012599;28;20049;-80
2023/02/17 06:43:31;;;;;;;17.75;9.45;;;;;;;;;;5023545;28;20093;-80
2023/02/17 06:45:59;;;;;;;18.75;9.93;;;;;;;;;;5027588;28;20046;-81
2023/02/17 06:48:26;;;;;;;20.05;10.65;;;;;;;;;;5027900;28;20131;-81
2023/02/17 06:50:53;;;;;;;20.88;10.68;;;;;;;;;;5010166;28;20045;-80
2023/02/17 06:53:19;;;;;;;21.60;10.02;;;;;;;;;;5046740;28;20140;-81
2023/02/17 06:55:45;;;;;;;21.83;10.35;;;;;;;;;;5031096;28;20059;-81
2023/02/17 06:58:12;;;;;;;23.00;10.35;;;;;;;;;;5033543;28;20049;-80
2023/02/17 07:00:38;;;;;;;19.25;11.02;;;;;;;;;;5028590;28;20064;-80
2023/02/17 07:03:05;;;;;;;21.75;11.13;;;;;;;;;;5013410;28;20042;-80
2023/02/17 07:05:33;;;;;;;25.95;10.82;;;;;;;;;;5032637;28;20119;-81
2023/02/17 07:07:59;;;;;;;19.65;10.95;;;;;;;;;;5018489;28;20500;-82
2023/02/17 07:10:26;;;;;;;21.38;10.73;;;;;;;;;;5012046;28;20462;-79
2023/02/17 07:12:52;;;;;;;23.40;12.30;;;;;;;;;;4995152;28;20667;-81
2023/02/17 07:15:19;;;;;;;20.00;10.52;;;;;;;;;;5028100;28;20045;-82
2023/02/17 07:17:46;;;;;;;24.17;11.48;;;;;;;;;;5031371;28;20055;-81
2023/02/17 07:20:12;;;;;;;21.08;10.85;;;;;;;;;;5031646;28;20053;-80
2023/02/17 07:22:39;;;;;;;22.00;11.05;;;;;;;;;;5031677;28;20057;-81
2023/02/17 07:25:06;;;;;;;18.63;10.55;;;;;;;;;;5030822;28;20045;-81
2023/02/17 07:27:34;;;;;;;20.63;11.02;;;;;;;;;;5031628;28;20041;-81
2023/02/17 07:30:00;;;;;;;20.73;10.98;;;;;;;;;;5032313;28;20051;-81
2023/02/17 07:32:27;;;;;;;20.10;10.35;;;;;;;;;;5031429;28;20122;-81
2023/02/17 07:34:53;;;;;;;20.33;10.48;;;;;;;;;;5031299;28;20045;-80
2023/02/17 07:37:20;;;;;;;19.58;10.60;;;;;;;;;;5031578;28;20056;-80
2023/02/17 07:39:47;;;;;;;23.52;10.93;;;;;;;;;;5031702;28;20045;-80
2023/02/17 07:42:14;;;;;;;20.40;10.15;;;;;;;;;;5031918;28;20061;-82
2023/02/17 07:44:40;;;;;;;23.90;10.27;;;;;;;;;;5031545;28;20056;-82
2023/02/17 07:47:06;;;;;;;17.52;9.85;;;;;;;;;;5031343;28;20041;-81
2023/02/17 07:49:33;;;;;;;17.52;9.48;;;;;;;;;;5031826;28;20095;-81
2023/02/17 07:51:59;;;;;;;18.10;9.75;;;;;;;;;;5032510;28;20042;-82
2023/02/17 07:54:27;;;;;;;18.52;9.45;;;;;;;;;;5032608;28;20049;-81
2023/02/17 07:56:53;;;;;;;18.88;8.85;;;;;;;;;;5031712;28;20187;-82
2023/02/17 07:59:19;;;;;;;16.42;9.05;;;;;;;;;;5032852;28;20203;-80
2023/02/17 08:01:46;;;;;;;15.30;8.65;;;;;;;;;;5036717;28;20136;-81
2023/02/17 08:04:12;;;;;;;15.13;8.50;;;;;;;;;;5038979;28;20049;-80
2023/02/17 08:06:39;;;;;;;14.60;8.38;;;;;;;;;;5040502;28;20188;-81
2023/02/17 08:14:37;;;;;;;13.90;7.50;;;;;;;;;;5034291;28;20303;-81
2023/02/17 08:17:03;;;;;;;13.73;7.88;;;;;;;;;;5022926;28;20460;-81
2023/02/17 08:19:30;;;;;;;14.05;7.35;;;;;;;;;;5031487;28;20053;-82
2023/02/17 08:22:12;;;;;;;11.80;6.95;;;;;;;;;;5031795;28;20060;-80
2023/02/17 08:24:38;;;;;;;13.50;7.22;;;;;;;;;;5031174;28;20081;-81
2023/02/17 08:27:05;;;;;;;13.18;6.93;;;;;;;;;;5031592;28;20056;-80
2023/02/17 08:29:31;;;;;;;12.57;7.20;;;;;;;;;;5032940;28;20049;-80
2023/02/17 08:31:57;;;;;;;13.25;6.97;;;;;;;;;;5033053;28;20052;-81
2023/02/17 08:34:24;;;;;;;11.07;6.60;;;;;;;;;;5032207;28;20081;-80
2023/02/17 08:36:50;;;;;;;12.20;6.50;;;;;;;;;;5035715;28;20060;-82
2023/02/17 08:39:17;;;;;;;13.30;5.75;;;;;;;;;;5039926;28;20088;-80
2023/02/17 08:41:44;;;;;;;10.43;5.47;;;;;;;;;;5044807;28;20121;-83
2023/02/17 08:44:13;;;;;;;10.40;5.78;;;;;;;;;;5040588;28;20063;-80
2023/02/17 08:46:40;;;;;;;10.27;6.28;;;;;;;;;;5044734;28;20107;-80
2023/02/17 08:49:06;;;;;;;13.15;5.45;;;;;;;;;;5021382;28;20045;-80
2023/02/17 08:51:33;;;;;;;8.98;5.38;;;;;;;;;;5038980;28;20514;-80
2023/02/17 08:54:00;;;;;;;8.88;5.45;;;;;;;;;;5037063;28;20054;-83
2023/02/17 08:56:27;;;;;;;8.13;5.38;;;;;;;;;;5035985;28;20054;-83
2023/02/17 08:58:53;;;;;;;9.50;5.40;;;;;;;;;;5035002;28;20080;-82
2023/02/17 09:01:20;;;;;;;9.07;5.53;;;;;;;;;;5034739;28;20513;-82
2023/02/17 09:03:47;;;;;;;8.88;5.20;;;;;;;;;;5034925;28;20665;-80
2023/02/17 09:06:14;;;;;;;12.27;5.18;;;;;;;;;;5036497;28;20064;-82
2023/02/17 09:08:41;;;;;;;10.00;4.63;;;;;;;;;;5036824;28;20544;-81
2023/02/17 09:11:08;;;;;;;8.15;4.85;;;;;;;;;;5034817;28;20053;-81
2023/02/17 09:13:35;;;;;;;8.90;4.75;;;;;;;;;;5032748;28;20133;-81
2023/02/17 09:16:01;;;;;;;7.80;5.10;;;;;;;;;;5032522;28;20059;-81
2023/02/17 09:18:28;;;;;;;9.75;5.18;;;;;;;;;;5035009;28;20049;-81
2023/02/17 09:20:54;;;;;;;8.00;5.00;;;;;;;;;;5032807;28;20080;-80
2023/02/17 09:23:21;;;;;;;9.85;4.68;;;;;;;;;;5035170;28;20474;-82
2023/02/17 09:25:47;;;;;;;8.13;4.43;;;;;;;;;;5033203;28;20558;-82
2023/02/17 09:28:14;;;;;;;8.55;5.05;;;;;;;;;;5032520;28;20461;-81
2023/02/17 09:30:41;;;;;;;9.75;4.63;;;;;;;;;;5033251;28;20049;-81
2023/02/17 09:33:08;;;;;;;8.50;4.85;;;;;;;;;;5016792;28;20133;-80
2023/02/17 09:35:35;;;;;;;9.30;4.72;;;;;;;;;;5035190;28;20490;-81
2023/02/17 09:38:02;;;;;;;14.23;5.30;;;;;;;;;;5036160;28;20122;-81
2023/02/17 09:40:38;;;;;;;7.85;5.13;;;;;;;;;;5035283;28;20049;-81
2023/02/17 09:43:05;;;;;;;9.20;4.32;;;;;;;;;;5035802;28;20089;-81
2023/02/17 09:45:34;;;;;;;9.25;4.80;;;;;;;;;;5034508;28;20394;-81
2023/02/17 09:48:04;;;;;;;11.23;4.80;;;;;;;;;;5031408;28;20115;-80
2023/02/17 09:50:42;;;;;;;7.82;4.88;;;;;;;;;;5034617;28;20045;-81
2023/02/17 09:53:15;;;;;;;9.52;4.65;;;;;;;;;;5035377;28;20474;-82
2023/02/17 09:55:45;;;;;;;9.23;4.70;;;;;;;;;;5037397;28;20084;-81
2023/02/17 09:58:15;;;;;;;8.27;4.85;;;;;;;;;;5036150;28;20050;-82
2023/02/17 10:00:44;;;;;;;8.77;5.30;;;;;;;;;;5035916;28;20160;-81
2023/02/17 10:03:22;;;;;;;10.15;5.28;;;;;;;;;;5034648;28;20045;-81
2023/02/17 10:05:52;;;;;;;8.13;4.60;;;;;;;;;;5019119;28;20136;-79
2023/02/17 10:08:22;;;;;;;7.55;4.40;;;;;;;;;;5037126;28;20133;-80
2023/02/17 10:10:55;;;;;;;9.30;4.45;;;;;;;;;;5043020;28;20113;-80
2023/02/17 10:13:23;;;;;;;8.07;4.43;;;;;;;;;;5039335;28;20042;-80
2023/02/17 10:15:51;;;;;;;8.70;4.30;;;;;;;;;;5036790;28;20061;-81
2023/02/17 10:18:27;;;;;;;7.80;4.40;;;;;;;;;;5044264;28;20144;-80
2023/02/17 10:21:04;;;;;;;8.60;4.80;;;;;;;;;;5043123;28;20080;-79
2023/02/17 10:23:30;;;;;;;7.80;4.13;;;;;;;;;;5044297;28;20088;-79
2023/02/17 10:26:06;;;;;;;7.82;4.43;;;;;;;;;;5041395;28;20104;-79
2023/02/17 10:28:32;;;;;;;;;;;;;;;;;;5025827;28;20045;-80
2023/02/17 10:31:04;;;;;;;7.05;4.47;;;;;;;;;;5031981;28;19946;-81
2023/02/17 10:33:33;;;;;;;7.78;4.30;;;;;;;;;;5050502;28;20049;-83
2023/02/17 10:36:19;;;;;;;8.00;4.22;;;;;;;;;;5027967;28;20049;-80
2023/02/17 10:38:45;;;;;;;8.45;4.43;;;;;;;;;;5024982;28;20055;-79
2023/02/17 10:41:14;;;;;;;7.30;4.38;;;;;;;;;;5041948;28;20057;-79
2023/02/17 10:43:41;;;;;;;8.48;4.10;;;;;;;;;;5038090;28;20060;-81
2023/02/17 10:46:08;;;;;;;5.40;3.80;;;;;;;;;;5034229;28;20408;-81
2023/02/17 10:48:41;;;;;;;9.57;4.75;;;;;;;;;;5035624;28;20052;-82
2023/02/17 10:51:11;;;;;;;6.97;3.75;;;;;;;;;;5016513;28;20446;-81
2023/02/17 10:53:39;;;;;;;5.65;3.70;;;;;;;;;;5033621;28;20383;-81
2023/02/17 10:56:08;;;;;;;7.18;3.95;;;;;;;;;;5033733;28;20049;-81
2023/02/17 10:58:43;;;;;;;7.55;4.20;;;;;;;;;;5034570;28;20208;-81
2023/02/17 11:01:10;;;;;;;7.07;4.15;;;;;;;;;;5035270;28;20068;-82
2023/02/17 11:03:39;;;;;;;5.82;3.75;;;;;;;;;;5018879;28;20050;-82
2023/02/17 11:06:17;;;;;;;6.35;3.83;;;;;;;;;;5038147;28;20046;-81
2023/02/17 11:08:57;;;;;;;7.75;4.05;;;;;;;;;;5039442;28;20052;-81
2023/02/17 11:11:25;;;;;;;8.40;4.00;;;;;;;;;;5038623;28;20061;-82
2023/02/17 11:13:55;;;;;;;7.00;4.22;;;;;;;;;;5037284;28;20553;-81
2023/02/17 11:16:36;;;;;;;6.82;3.63;;;;;;;;;;5039748;28;20076;-81
2023/02/17 11:19:03;;;;;;;8.85;3.85;;;;;;;;;;5041313;28;20437;-81
2023/02/17 11:21:32;;;;;;;6.88;3.80;;;;;;;;;;5042869;28;20060;-80
2023/02/17 11:24:00;;;;;;;9.82;4.30;;;;;;;;;;5041143;28;20405;-80
2023/02/17 11:26:28;;;;;;;6.82;3.80;;;;;;;;;;5042189;28;20053;-81
2023/02/17 11:29:05;;;;;;;7.45;4.03;;;;;;;;;;5039435;28;20041;-80
2023/02/17 11:31:32;;;;;;;5.82;3.92;;;;;;;;;;5040933;28;20052;-81
2023/02/17 11:34:09;;;;;;;6.95;3.60;;;;;;;;;;5049591;28;20059;-83
2023/02/17 11:36:35;;;;;;;6.63;3.67;;;;;;;;;;5040289;28;20115;-82
2023/02/17 11:39:12;;;;;;;5.53;3.60;;;;;;;;;;5043796;28;20049;-83
2023/02/17 11:41:39;;;;;;;6.00;3.55;;;;;;;;;;5031441;28;20061;-83
2023/02/17 11:44:07;;;;;;;9.40;4.10;;;;;;;;;;5042831;28;20227;-82
2023/02/17 11:46:37;;;;;;;4.88;3.28;;;;;;;;;;5032236;28;20053;-83
2023/02/17 11:49:15;;;;;;;5.93;3.42;;;;;;;;;;5034809;28;20284;-81
2023/02/17 11:51:45;;;;;;;7.72;3.50;;;;;;;;;;5030986;28;20780;-83
2023/02/17 11:54:17;;;;;;;6.90;3.75;;;;;;;;;;5023233;28;20132;-81
2023/02/17 11:56:50;;;;;;;8.45;3.78;;;;;;;;;;5014662;28;20136;-79
2023/02/17 11:59:36;;;;;;;6.53;3.58;;;;;;;;;;5037908;28;20046;-81
2023/02/17 12:02:10;;;;;;;5.90;3.33;;;;;;;;;;5021899;28;20166;-83
2023/02/17 12:04:56;;;;;;;7.97;3.83;;;;;;;;;;5013996;28;20045;-84
2023/02/17 12:07:32;;;;;;;5.68;3.45;;;;;;;;;;4991579;28;20107;-83
2023/02/17 12:10:17;;;;;;;6.00;3.88;;;;;;;;;;5032386;28;20049;-81
2023/02/17 12:12:56;;;;;;;6.95;3.75;;;;;;;;;;5018984;28;20128;-82
2023/02/17 12:15:22;;;;;;;6.20;3.55;;;;;;;;;;5036446;28;20053;-81
2023/02/17 12:18:07;;;;;;;6.38;3.25;;;;;;;;;;5036139;28;20056;-83
2023/02/17 12:20:37;;;;;;;8.05;3.33;;;;;;;;;;5035919;28;20053;-82
2023/02/17 12:23:22;;;;;;;6.53;3.80;;;;;;;;;;5035903;28;20041;-80
2023/02/17 12:25:58;;;;;;;8.25;3.80;;;;;;;;;;5035011;28;20059;-80
2023/02/17 12:28:43;;;;;;;7.85;3.33;;;;;;;;;;5035162;28;20041;-82
2023/02/17 12:31:28;;;;;;;4.95;3.17;;;;;;;;;;5035023;28;20533;-80
2023/02/17 12:33:55;;;;;;;8.30;3.55;;;;;;;;;;5035306;28;20084;-82
2023/02/17 12:36:24;;;;;;;5.00;3.15;;;;;;;;;;5035097;28;20072;-82
2023/02/17 12:38:56;;;;;;;5.28;3.05;;;;;;;;;;5019167;28;20054;-83
2023/02/17 12:41:29;;;;;;;4.45;2.92;;;;;;;;;;5044480;28;20057;-81
2023/02/17 12:43:57;;;;;;;7.45;2.90;;;;;;;;;;5036058;28;20041;-81
2023/02/17 12:46:33;;;;;;;5.50;2.90;;;;;;;;;;5034592;28;20494;-82
2023/02/17 12:48:59;;;;;;;;;;;;;;;;;;5018105;28;20431;-81
2023/02/17 12:51:47;;;;;;;5.68;3.10;;;;;;;;;;5017740;28;19921;-82
2023/02/17 12:54:14;;;;;;;3.88;2.50;;;;;;;;;;5035521;28;20068;-81
2023/02/17 12:56:47;;;;;;;3.97;2.35;;;;;;;;;;5017757;28;20053;-81
2023/02/17 12:59:15;;;;;;;4.10;2.30;;;;;;;;;;5037202;28;20378;-82
2023/02/17 13:01:51;;;;;;;4.57;2.15;;;;;;;;;;5018639;28;20056;-81
2023/02/17 13:04:19;;;;;;;4.63;2.20;;;;;;;;;;5034674;28;20266;-82
2023/02/17 13:06:50;;;;;;;2.92;1.92;;;;;;;;;;5035086;28;20057;-81
2023/02/17 13:09:22;;;;;;;3.38;1.90;;;;;;;;;;5034775;28;20417;-83
2023/02/17 13:11:49;;;;;;;3.72;1.60;;;;;;;;;;5035737;28;20056;-84
2023/02/17 13:14:37;;;;;;;3.50;1.75;;;;;;;;;;5014463;28;20521;-82
2023/02/17 13:17:03;;;;;;;2.53;1.70;;;;;;;;;;5024774;28;20081;-79
2023/02/17 13:19:31;;;;;;;2.78;1.60;;;;;;;;;;5034413;28;20053;-82
2023/02/17 13:22:04;;;;;;;4.50;1.83;;;;;;;;;;5035439;28;20095;-81
2023/02/17 13:24:30;;;;;;;2.80;1.60;;;;;;;;;;5034641;28;20140;-83
2023/02/17 13:27:08;;;;;;;2.55;1.73;;;;;;;;;;5033687;28;20076;-82
2023/02/17 13:29:35;;;;;;;3.03;1.60;;;;;;;;;;5035569;28;20056;-83
2023/02/17 13:32:04;;;;;;;3.67;1.75;;;;;;;;;;5017476;28;20049;-83
2023/02/17 13:34:31;;;;;;;3.45;1.80;;;;;;;;;;5035523;28;20111;-81
2023/02/17 13:36:58;;;;;;;2.60;1.77;;;;;;;;;;5034915;28;20502;-83
2023/02/17 13:39:32;;;;;;;3.45;1.75;;;;;;;;;;5034741;28;20137;-82
2023/02/17 13:41:59;;;;;;;3.25;1.92;;;;;;;;;;5016981;28;20049;-83
2023/02/17 13:44:30;;;;;;;2.95;1.50;;;;;;;;;;5038093;28;20104;-83
2023/02/17 13:47:11;;;;;;;3.42;1.70;;;;;;;;;;5039932;28;20073;-82
2023/02/17 13:49:37;;;;;;;3.25;1.70;;;;;;;;;;5035923;28;20042;-83
2023/02/17 13:52:30;;;;;;;2.88;1.95;;;;;;;;;;5019625;28;20514;-82
2023/02/17 13:54:58;;;;;;;2.95;1.77;;;;;;;;;;5028018;28;20096;-82
2023/02/17 13:57:24;;;;;;;2.88;1.85;;;;;;;;;;5035316;28;20054;-82
2023/02/17 13:59:51;;;;;;;2.60;1.80;;;;;;;;;;5019791;28;20528;-81
2023/02/17 14:02:18;;;;;;;3.45;1.77;;;;;;;;;;5038963;28;20068;-82
2023/02/17 14:05:09;;;;;;;4.93;1.85;;;;;;;;;;5038139;28;20128;-83
2023/02/17 14:07:35;;;;;;;5.18;1.70;;;;;;;;;;5019590;28;20050;-82
2023/02/17 14:10:02;;;;;;;2.38;1.52;;;;;;;;;;5040281;28;20056;-79
2023/02/17 14:12:28;;;;;;;3.65;2.10;;;;;;;;;;5035505;28;20045;-82
2023/02/17 14:14:55;;;;;;;2.85;1.90;;;;;;;;;;5029504;28;20472;-82
2023/02/17 14:17:29;;;;;;;3.20;1.73;;;;;;;;;;5018471;28;20464;-82
2023/02/17 14:19:59;;;;;;;4.13;1.75;;;;;;;;;;5031805;28;20545;-83
2023/02/17 14:22:29;;;;;;;3.70;2.05;;;;;;;;;;5034099;28;20057;-81
2023/02/17 14:25:06;;;;;;;3.10;1.73;;;;;;;;;;5035220;28;20132;-82
2023/02/17 14:27:46;;;;;;;3.13;1.88;;;;;;;;;;5042183;28;20052;-82
2023/02/17 14:30:31;;;;;;;3.88;2.17;;;;;;;;;;5033893;28;20135;-81
2023/02/17 14:33:07;;;;;;;3.28;2.00;;;;;;;;;;5036443;28;20052;-80
2023/02/17 14:35:34;;;;;;;3.25;2.05;;;;;;;;;;5017636;28;20051;-81
2023/02/17 14:38:08;;;;;;;3.85;1.88;;;;;;;;;;5016384;28;20057;-80
2023/02/17 14:40:34;;;;;;;3.40;1.90;;;;;;;;;;5034057;28;20112;-82
2023/02/17 14:43:03;;;;;;;4.05;1.98;;;;;;;;;;5016544;28;20566;-81
2023/02/17 14:45:29;;;;;;;4.30;1.90;;;;;;;;;;5016807;28;20267;-81
2023/02/17 14:47:56;;;;;;;2.72;1.95;;;;;;;;;;5034705;28;20099;-82